createdAt,value
2022-12-03T00:02:50.608Z,7.22
2022-12-03T00:07:53.183Z,7.28
2022-12-03T00:12:55.764Z,6.63
2022-12-03T00:17:58.228Z,7.43
2022-12-03T00:23:00.714Z,6.20
2022-12-03T00:28:03.233Z,7.20
2022-12-03T00:33:05.797Z,6.55
2022-12-03T00:38:08.296Z,7.10
2022-12-03T00:43:10.859Z,6.70
2022-12-03T00:48:13.595Z,6.88
2022-12-03T00:53:16.104Z,6.82
2022-12-03T00:58:18.965Z,6.78
2022-12-03T01:03:21.416Z,7.60
2022-12-03T01:08:24.253Z,6.50
2022-12-03T01:13:46.972Z,7.55
2022-12-03T01:18:52.304Z,7.70
2022-12-03T01:23:54.965Z,6.97
2022-12-03T01:28:57.461Z,7.22
2022-12-03T01:33:59.949Z,8.98
2022-12-03T01:39:04.572Z,6.85
2022-12-03T01:49:25.067Z,5.95
2022-12-03T01:54:38.474Z,7.20
2022-12-03T01:59:40.941Z,6.65
2022-12-03T02:04:43.702Z,6.55
2022-12-03T02:09:46.300Z,6.68
2022-12-03T02:14:49.122Z,5.80
2022-12-03T02:19:52.470Z,7.22
2022-12-03T02:25:14.371Z,7.47
2022-12-03T02:30:21.906Z,6.20
2022-12-03T02:35:28.849Z,6.03
2022-12-03T02:40:33.420Z,6.22
2022-12-03T02:51:05.894Z,6.30
2022-12-03T02:56:09.041Z,7.55
2022-12-03T03:01:11.693Z,7.25
2022-12-03T03:06:18.387Z,6.97
2022-12-03T03:11:20.882Z,7.05
2022-12-03T03:16:23.357Z,6.70
2022-12-03T03:21:25.892Z,7.75
2022-12-03T03:26:28.467Z,8.02
2022-12-03T03:31:31.102Z,7.93
2022-12-03T03:36:33.911Z,8.50
2022-12-03T03:41:36.896Z,7.88
2022-12-03T03:46:39.926Z,8.65
2022-12-03T03:51:42.657Z,6.90
2022-12-03T03:56:45.586Z,7.23
2022-12-03T04:01:49.344Z,6.83
2022-12-03T04:06:52.281Z,7.18
2022-12-03T04:12:13.375Z,6.40
2022-12-03T04:17:15.854Z,6.90
2022-12-03T04:22:37.533Z,7.50
2022-12-03T04:28:00.036Z,7.40
2022-12-03T04:33:21.195Z,7.10
2022-12-03T04:38:23.729Z,7.35
2022-12-03T04:43:29.892Z,7.45
2022-12-03T04:48:32.379Z,7.18
2022-12-03T04:53:36.344Z,8.05
2022-12-03T04:58:38.883Z,7.15
2022-12-03T05:03:41.430Z,7.80
2022-12-03T05:08:43.844Z,7.25
2022-12-03T05:13:46.320Z,8.30
2022-12-03T05:18:48.832Z,8.23
2022-12-03T05:23:51.552Z,10.15
2022-12-03T05:28:54.099Z,10.23
2022-12-03T05:33:56.594Z,11.00
2022-12-03T05:38:59.022Z,8.45
2022-12-03T05:44:01.545Z,8.18
2022-12-03T05:49:04.075Z,8.90
2022-12-03T05:54:06.614Z,9.27
2022-12-03T05:59:09.293Z,8.73
2022-12-03T06:04:11.914Z,8.05
2022-12-03T06:09:14.423Z,9.38
2022-12-03T06:14:16.822Z,8.70
2022-12-03T06:19:19.365Z,7.95
2022-12-03T06:24:21.875Z,9.05
2022-12-03T06:29:24.359Z,9.75
2022-12-03T06:34:26.812Z,11.40
2022-12-03T06:39:29.391Z,12.55
2022-12-03T06:44:31.854Z,9.85
2022-12-03T06:49:34.793Z,9.25
2022-12-03T06:54:37.293Z,10.48
2022-12-03T06:59:39.810Z,9.70
2022-12-03T07:04:52.541Z,12.13
2022-12-03T07:09:55.192Z,12.57
2022-12-03T07:14:57.641Z,11.40
2022-12-03T07:20:00.113Z,9.50
2022-12-03T07:25:02.977Z,9.27
2022-12-03T07:30:07.957Z,12.80
2022-12-03T07:35:10.762Z,11.32
2022-12-03T07:40:13.950Z,12.27
2022-12-03T07:45:16.624Z,20.90
2022-12-03T07:50:19.083Z,33.72
2022-12-03T07:55:21.909Z,14.00
2022-12-03T08:00:24.634Z,10.68
2022-12-03T08:05:27.466Z,10.35
2022-12-03T08:10:29.948Z,12.60
2022-12-03T08:15:37.226Z,13.63
2022-12-03T08:20:43.949Z,10.30
2022-12-03T08:25:47.621Z,9.70
2022-12-03T08:31:27.954Z,9.37
2022-12-03T08:36:36.493Z,10.10
2022-12-03T08:41:57.661Z,11.40
2022-12-03T08:47:21.430Z,10.55
2022-12-03T08:52:32.077Z,10.63
2022-12-03T08:57:36.227Z,9.45
2022-12-03T09:02:43.793Z,9.07
2022-12-03T09:07:46.248Z,9.00
2022-12-03T09:12:48.786Z,10.13
2022-12-03T09:17:51.268Z,8.68
2022-12-03T09:22:53.800Z,11.55
2022-12-03T09:27:56.322Z,8.70
2022-12-03T09:33:00.136Z,14.63
2022-12-03T09:38:02.616Z,23.37
2022-12-03T09:43:05.918Z,32.35
2022-12-03T09:48:08.476Z,19.60
2022-12-03T09:53:19.983Z,10.10
2022-12-03T09:58:23.517Z,9.30
2022-12-03T10:03:30.547Z,10.18
2022-12-03T10:08:33.530Z,9.18
2022-12-03T10:13:37.337Z,8.85
2022-12-03T10:18:47.578Z,9.32
2022-12-03T10:23:55.111Z,9.80
2022-12-03T10:28:58.048Z,10.07
2022-12-03T10:34:00.500Z,10.20
2022-12-03T10:39:08.220Z,8.43
2022-12-03T10:44:20.522Z,9.35
2022-12-03T10:49:23.082Z,8.93
2022-12-03T10:54:28.704Z,8.50
2022-12-03T10:59:33.564Z,8.07
2022-12-03T11:04:37.354Z,9.18
2022-12-03T11:09:42.845Z,8.43
2022-12-03T11:14:52.268Z,8.48
2022-12-03T11:19:55.067Z,8.73
2022-12-03T11:25:25.311Z,10.18
2022-12-03T11:30:50.052Z,11.38
2022-12-03T11:36:06.153Z,8.90
2022-12-03T11:41:22.545Z,8.85
2022-12-03T11:46:40.608Z,9.82
2022-12-03T11:51:45.196Z,9.18
2022-12-03T11:56:49.538Z,9.88
2022-12-03T12:01:52.137Z,10.50
2022-12-03T12:06:54.565Z,13.40
2022-12-03T12:12:16.981Z,13.40
2022-12-03T12:17:36.534Z,10.10
2022-12-03T12:22:39.412Z,10.07
2022-12-03T12:27:51.027Z,13.35
2022-12-03T12:33:19.858Z,11.43
2022-12-03T12:38:24.286Z,9.90
2022-12-03T12:43:30.872Z,13.63
2022-12-03T12:48:35.638Z,11.90
2022-12-03T12:58:42.788Z,11.75
2022-12-03T13:03:45.324Z,11.45
2022-12-03T13:08:50.360Z,13.82
2022-12-03T13:13:52.958Z,11.57
2022-12-03T13:19:00.119Z,11.05
2022-12-03T13:24:03.133Z,10.98
2022-12-03T13:29:18.379Z,10.38
2022-12-03T13:34:27.342Z,15.23
2022-12-03T13:39:38.228Z,9.82
2022-12-03T13:44:49.415Z,10.20
2022-12-03T13:49:56.857Z,10.50
2022-12-03T13:55:02.255Z,10.50
2022-12-03T14:00:05.784Z,11.18
2022-12-03T14:05:15.332Z,9.95
2022-12-03T14:10:18.052Z,9.73
2022-12-03T14:15:21.532Z,12.55
2022-12-03T14:20:24.158Z,14.57
2022-12-03T14:25:28.026Z,11.85
2022-12-03T14:30:32.736Z,19.33
2022-12-03T14:40:37.636Z,15.43
2022-12-03T14:45:40.147Z,15.18
2022-12-03T14:50:42.633Z,16.10
2022-12-03T14:55:45.654Z,13.85
2022-12-03T15:00:48.125Z,11.35
2022-12-03T15:05:50.805Z,10.25
2022-12-03T15:10:53.332Z,10.43
2022-12-03T15:15:55.853Z,15.73
2022-12-03T15:20:58.610Z,12.55
2022-12-03T15:26:01.094Z,12.70
2022-12-03T15:31:03.741Z,12.95
2022-12-03T15:36:06.730Z,12.55
2022-12-03T15:41:21.735Z,13.90
2022-12-03T15:46:24.735Z,12.80
2022-12-03T15:51:28.894Z,14.07
2022-12-03T15:56:32.990Z,17.08
2022-12-03T16:01:36.682Z,12.77
2022-12-03T16:06:39.426Z,13.02
2022-12-03T16:11:41.963Z,12.23
2022-12-03T16:16:44.414Z,12.83
2022-12-03T16:21:47.185Z,11.27
2022-12-03T16:26:49.612Z,13.15
2022-12-03T16:31:52.111Z,11.52
2022-12-03T16:36:54.639Z,13.32
2022-12-03T16:41:57.165Z,13.88
2022-12-03T16:47:02.590Z,16.10
2022-12-03T16:52:05.239Z,16.33
2022-12-03T16:57:07.826Z,20.23
2022-12-03T17:02:11.687Z,16.73
2022-12-03T17:07:14.294Z,13.93
2022-12-03T17:12:16.835Z,12.73
2022-12-03T17:17:19.340Z,12.57
2022-12-03T17:22:21.867Z,11.98
2022-12-03T17:27:25.210Z,13.10
2022-12-03T17:32:27.682Z,12.15
2022-12-03T17:37:30.150Z,11.87
2022-12-03T17:42:32.633Z,14.10
2022-12-03T17:47:35.080Z,13.20
2022-12-03T17:52:37.536Z,12.65
2022-12-03T17:57:40.084Z,17.70
2022-12-03T18:02:42.915Z,11.70
2022-12-03T18:07:45.777Z,11.63
2022-12-03T18:12:48.612Z,11.63
2022-12-03T18:17:51.872Z,11.65
2022-12-03T18:22:54.384Z,14.57
2022-12-03T18:27:57.695Z,14.88
2022-12-03T18:33:00.158Z,14.47
2022-12-03T18:38:02.736Z,14.03
2022-12-03T18:43:12.089Z,10.97
2022-12-03T18:48:18.347Z,11.87
2022-12-03T18:53:20.822Z,11.27
2022-12-03T18:58:23.328Z,11.03
2022-12-03T19:03:26.037Z,11.33
2022-12-03T19:08:28.920Z,11.40
2022-12-03T19:13:31.394Z,10.40
2022-12-03T19:18:34.073Z,8.73
2022-12-03T19:23:37.541Z,11.87
2022-12-03T19:28:41.143Z,11.13
2022-12-03T19:33:44.022Z,9.77
2022-12-03T19:38:55.071Z,12.23
2022-12-03T19:43:59.494Z,12.50
2022-12-03T19:49:02.821Z,13.50
2022-12-03T19:54:07.952Z,13.37
2022-12-03T19:59:13.720Z,14.48
2022-12-03T20:04:16.279Z,14.57
2022-12-03T20:09:20.683Z,15.63
2022-12-03T20:14:23.326Z,15.55
2022-12-03T20:19:25.828Z,13.98
2022-12-03T20:24:28.357Z,14.60
2022-12-03T20:29:30.889Z,14.48
2022-12-03T20:34:35.916Z,13.75
2022-12-03T20:39:38.578Z,13.67
2022-12-03T20:44:41.026Z,14.15
2022-12-03T20:49:43.498Z,11.57
2022-12-03T20:54:46.077Z,14.07
2022-12-03T20:59:48.580Z,13.13
2022-12-03T21:04:51.004Z,13.90
2022-12-03T21:09:54.103Z,14.68
2022-12-03T21:14:57.077Z,11.65
2022-12-03T21:19:59.548Z,10.65
2022-12-03T21:25:02.062Z,12.68
2022-12-03T21:30:05.283Z,13.93
2022-12-03T21:35:08.135Z,12.07
2022-12-03T21:40:11.133Z,10.57
2022-12-03T21:45:14.547Z,15.87
2022-12-03T21:50:17.072Z,11.32
2022-12-03T21:55:19.525Z,13.55
2022-12-03T22:00:22.638Z,10.70
2022-12-03T22:05:25.256Z,10.77
2022-12-03T22:10:27.974Z,13.50
2022-12-03T22:15:30.447Z,10.43
2022-12-03T22:20:32.928Z,10.80
2022-12-03T22:25:35.482Z,10.40
2022-12-03T22:30:40.328Z,9.63
2022-12-03T22:35:42.836Z,10.93
2022-12-03T22:40:46.104Z,10.23
2022-12-03T22:45:52.507Z,11.70
2022-12-03T22:50:55.099Z,10.67
2022-12-03T22:56:00.158Z,11.73
2022-12-03T23:01:03.298Z,10.63
2022-12-03T23:06:12.786Z,10.90
2022-12-03T23:11:16.452Z,12.20
2022-12-03T23:16:26.340Z,11.47
2022-12-03T23:21:32.715Z,9.63
2022-12-03T23:26:37.900Z,10.70
2022-12-03T23:31:40.489Z,9.05
2022-12-03T23:36:42.976Z,10.15
2022-12-03T23:41:45.424Z,9.37
2022-12-03T23:46:47.990Z,9.70
2022-12-03T23:51:50.638Z,11.68
2022-12-03T23:56:53.164Z,10.60
